Weather observations for the past three days for
Rochelle, Rochelle Municipal-Koritz Field Airport
Imperial (Metric)
Date Time (cdt) Wind (mph) Vis. (mi.) Weather Sky Cond. Temperature (ºF) Relative Humidity Wind Chill (°F) Heat Index (°F) Pressure Precipitation (in)
Air Dwpt 6 hour altimeter (in) sea level (mb) 1 hr 3 hr 6 hr
Max. Min.
09 09:35 SW 12 10.00 Fair CLR 63.1 45.3 52% 29.68 0.0
09 09:15 W 8 10.00 Fair CLR 61.7 46.2 57% 29.67 0.0
09 08:55 W 10 10.00 Fair CLR 59.9 48.2 65% 29.67 0.0
09 08:35 W 10 10.00 Fair CLR 58.6 48.4 69% 29.67 0.0
09 08:15 W 13 7.00 Fair CLR 57.4 48.7 73% 29.66 0.0
09 07:55 W 12 10.00 Fair CLR 55.8 49.1 78% 29.67 0.0
09 07:35 W 13 7.00 Fair CLR 55.2 49.3 81% 29.67 0.0
09 07:15 W 12 10.00 Fair CLR 54 49.1 84% 29.67 0.0
09 06:55 SW 12 10.00 Fair CLR 52.7 48.4 52.7 48.2 85% 29.67 0.0
09 06:35 SW 10 10.00 Partly Cloudy SCT110 51.1 47.3 87% 29.67 0.0
09 06:15 SW 12 10.00 Partly Cloudy SCT110 50.4 46.8 88% 29.65 0.0
09 05:55 SW 8 10.00 Partly Cloudy SCT110 50.9 46.4 85% 29.65 0.0
09 05:35 SW 8 10.00 Mostly Cloudy BKN110 50.5 46.4 86% 29.65 0.0
09 05:15 SW 8 10.00 Overcast OVC110 51.3 46.8 85% 29.65 0.0
09 04:55 SW 8 10.00 Mostly Cloudy BKN110 51.1 47.1 86% 29.65 0.0
09 04:35 W 6 10.00 Partly Cloudy SCT120 49.6 46.4 89% 48 29.65 0.0
09 04:15 SW 8 10.00 Fair CLR 49.6 47.1 91% 47 29.65 0.0
09 03:55 S 8 10.00 Partly Cloudy SCT120 49.3 46.8 91% 46 29.65 0.0
09 03:35 S 8 10.00 Fair CLR 49.3 46.4 90% 46 29.65 0.0
09 03:15 S 7 10.00 Fair CLR 48.6 45.7 90% 46 29.66 0.0
09 02:55 S 5 10.00 Fair CLR 48.6 45 87% 47 29.67 0.0
09 02:35 SW 9 10.00 Fair CLR 51.8 48 87% 29.66 0.0
09 02:15 SW 9 10.00 Fair CLR 51.6 47.3 85% 29.66 0.0
09 01:55 SW 12 10.00 Fair CLR 51.8 46.6 82% 29.67 0.0
09 01:35 SW 12 10.00 Fair CLR 51.8 46 81% 29.68 0.0
09 01:15 SW 9 10.00 Fair CLR 51.1 45.3 81% 29.69 0.0
09 00:55 SW 8 10.00 Fair CLR 50.5 44.1 67.3 50.5 79% 29.7 0.0
09 00:35 S 7 10.00 Fair CLR 51.3 44.8 79% 29.7 0.0
09 00:15 SW 8 10.00 Fair CLR 51.8 45.1 78% 29.7 0.0
08 23:55 SW 9 10.00 Fair CLR 53.1 46 77% 29.7 0.0
08 23:35 SW 10 10.00 Fair CLR 54.3 46.6 75% 29.71 0.0
08 23:15 S 12 10.00 Fair CLR 54.9 46.6 74% 29.7 0.0
08 22:55 SW 10 10.00 Fair CLR 54.9 45.3 70% 29.7 0.0
08 22:35 S 12 10.00 Fair CLR 55.8 44.2 65% 29.7 0.0
08 22:15 S 15 10.00 Fair CLR 56.7 43.3 61% 29.7 0.0
08 21:55 S 13 10.00 Fair CLR 56.3 39.7 54% 29.71 0.0
08 21:35 S 10 10.00 Fair CLR 56.7 36.5 47% 29.7 0.0
08 21:15 S 10 10.00 Fair CLR 55.8 35.1 46% 29.7 0.0
08 20:55 S 9 10.00 Fair CLR 57.9 35.6 43% 29.7 0.0
08 20:35 SW 10 10.00 Fair CLR 60.3 36.1 41% 29.69 0.0
08 20:15 SW 9 10.00 Fair CLR 61.7 36 38% 29.69 0.0
08 19:55 SW 12 10.00 Fair CLR 63.7 35.6 35% 29.69 0.0
08 19:35 SW 13 10.00 Fair CLR 65.7 35.6 33% 29.69 0.0
08 19:15 SW 16 10.00 Fair CLR 66.6 36.1 33% 29.69 0.0
08 18:55 SW 15 10.00 Partly Cloudy SCT090 67.5 37.2 69.8 64.6 33% 29.7 0.0
08 18:35 SW 12 10.00 Partly Cloudy SCT090 68 37.8 33% 29.7 0.0
08 17:55 SW 17 10.00 Partly Cloudy SCT090 68.2 32.2 26% 29.71 0.0
08 17:35 W 8 G 17 10.00 Partly Cloudy SCT090 68 30.4 25% 29.7 0.0
08 17:15 SW 12 10.00 Mostly Cloudy BKN090 67.5 30.9 26% 29.7 0.0
08 16:55 W 9 10.00 Mostly Cloudy BKN090 68 31.1 25% 29.71 0.0
08 16:35 W 7 10.00 Partly Cloudy SCT090 66.6 33.4 29% 29.72 0.0
08 16:15 W 10 G 17 10.00 Mostly Cloudy BKN090 69.4 32.5 26% 29.72 0.0
08 15:55 W 14 10.00 Partly Cloudy SCT065 SCT090 68.2 33.6 28% 29.72 0.0
08 15:35 SW 13 G 23 10.00 Overcast BKN065 OVC090 69.8 33.3 26% 29.73 0.0
08 15:15 SW 9 G 17 10.00 Overcast BKN065 BKN080 OVC090 67.3 36.7 32% 29.74 0.0
08 14:35 SW 10 G 17 10.00 Partly Cloudy SCT065 SCT080 69.3 36.5 30% 29.75 0.0
08 14:15 Calm 10.00 Mostly Cloudy BKN065 BKN080 66.7 37 34% 29.76 0.0
08 13:55 SW 13 10.00 Overcast OVC065 68 37.6 33% 29.77 0.0
08 13:35 SW 7 10.00 Overcast SCT055 BKN065 OVC080 64.8 37.9 37% 29.77 0.0
08 13:15 SW 9 10.00 Overcast BKN050 OVC065 67.3 38.1 34% 29.77 0.0
08 12:35 S 3 10.00 Mostly Cloudy SCT048 BKN065 BKN075 65.5 40.3 40% 29.8 0.0
08 12:15 S 3 10.00 Partly Cloudy SCT048 SCT050 SCT065 63.3 40.1 43% 29.81 0.0
08 11:55 W 3 10.00 Partly Cloudy SCT043 SCT065 62.8 39.6 43% 29.81 0.0
08 11:35 SW 8 10.00 Partly Cloudy SCT041 SCT047 62.4 41.4 46% 29.82 0.0
08 11:15 S 5 10.00 Partly Cloudy SCT041 63.5 40.3 43% 29.83 0.0
08 10:55 S 5 10.00 Fair CLR 63 42.4 47% 29.84 0.0
08 10:35 Calm 10.00 Fair CLR 61.3 42.3 50% 29.84 0.0
08 10:15 S 5 10.00 Fair CLR 60.4 42.6 52% 29.84 0.0
08 09:55 S 6 10.00 Fair CLR 59.9 42.3 52% 29.85 0.0
08 09:35 S 7 10.00 Fair CLR 58.8 41.4 53% 29.86 0.0
08 09:15 S 8 10.00 Fair CLR 58.3 37 45% 29.86 0.0
08 08:35 E 8 10.00 Fair CLR 55.6 32.7 42% 29.86 0.0
08 08:15 E 6 10.00 Fair CLR 52.9 33.4 48% 29.86 0.0
08 07:55 SE 6 7.00 Partly Cloudy SCT090 50.5 37 60% 29.86 0.0
08 07:35 NE 3 7.00 Partly Cloudy SCT090 47.1 36.5 67% 29.86 0.0
08 07:15 NE 3 7.00 Mostly Cloudy BKN090 46.4 35.8 67% 29.86 0.0
08 06:55 NE 5 10.00 Mostly Cloudy BKN090 46 34.7 46.2 37 65% 44 29.85 0.0
08 06:35 Calm 10.00 Mostly Cloudy BKN100 43.9 33.1 66% 29.85 0.0
08 06:15 Calm 10.00 Overcast OVC100 44.2 32.2 63% 29.84 0.0
08 05:55 NE 3 10.00 Overcast OVC100 42.3 32.2 68% 29.84 0.0
08 05:35 Calm 10.00 Overcast OVC100 42.1 31.8 67% 29.85 0.0
08 05:15 Calm 10.00 Mostly Cloudy BKN110 39.7 32.2 74% 29.85 0.0
08 04:55 Calm 10.00 Mostly Cloudy BKN110 40.1 30.9 70% 29.85 0.0
08 04:35 Calm 10.00 Overcast OVC110 39.4 31.5 73% 29.86 0.0
08 04:15 Calm 10.00 Mostly Cloudy BKN095 37.4 30.9 77% 29.86 0.0
08 03:55 SE 3 10.00 Partly Cloudy SCT095 SCT120 39 30.4 71% 29.86 0.0
08 03:35 Calm 10.00 Partly Cloudy SCT110 40.1 31.5 71% 29.86 0.0
08 03:15 Calm 10.00 Mostly Cloudy BKN100 41.2 31.3 68% 29.87 0.0
08 02:55 Calm 10.00 Overcast OVC100 42.6 31.5 65% 29.87 0.0
08 02:35 Calm 10.00 Overcast BKN100 OVC120 43.2 32 65% 29.88 0.0
08 02:15 Calm 10.00 Mostly Cloudy BKN100 41 31.1 68% 29.88 0.0
08 01:55 Calm 10.00 Overcast OVC100 42.4 29.8 61% 29.89 0.0
08 01:35 Calm 10.00 Mostly Cloudy BKN090 42.3 28.8 59% 29.89 0.0
08 01:15 Calm 10.00 Partly Cloudy SCT090 SCT110 42.6 28.6 58% 29.89 0.0
08 00:55 Calm 10.00 Partly Cloudy SCT090 44.1 28.4 60.6 42.3 54% 29.89 0.0
08 00:35 Calm 10.00 Partly Cloudy SCT095 43 28.2 56% 29.89 0.0
08 00:15 N 3 10.00 Partly Cloudy SCT095 42.8 30.2 61% 29.88 0.0
07 23:55 NW 3 10.00 Partly Cloudy SCT095 43.7 30.7 60% 29.87 0.0
07 23:35 Calm 10.00 Fair CLR 45 30.9 58% 29.87 0.0
07 23:15 NW 3 10.00 Fair CLR 43.7 29.7 58% 29.87 0.0
07 22:55 W 7 10.00 Fair CLR 45.5 29.5 54% 42 29.87 0.0
07 22:35 W 6 10.00 Fair CLR 44.8 30.2 57% 42 29.86 0.0
07 22:15 Calm 10.00 Fair CLR 48.6 31.1 51% 29.86 0.0
07 21:55 Calm 10.00 Fair CLR 47.8 31.5 53% 29.86 0.0
07 21:35 Calm 10.00 Fair CLR 51.4 31.1 46% 29.85 0.0
07 21:15 W 3 10.00 Fair CLR 49.8 31.8 50% 29.85 0.0
07 20:55 W 7 10.00 Fair CLR 53.2 32 45% 29.84 0.0
07 20:35 NW 6 10.00 Fair CLR 50.5 32 49% 29.83 0.0
07 20:15 W 8 10.00 Fair CLR 52.7 32.4 46% 29.83 0.0
07 19:55 W 9 10.00 Fair CLR 55.8 32 41% 29.82 0.0
07 19:35 W 12 7.00 Fair CLR 58.1 31.8 37% 29.81 0.0
07 19:15 W 14 G 21 7.00 Partly Cloudy SCT085 59.9 31.8 35% 29.81 0.0
07 18:55 W 17 7.00 Partly Cloudy SCT090 60.8 31.1 62.4 56.8 33% 29.81 0.0
07 18:35 W 16 G 24 5.00 Partly Cloudy with Haze SCT090 61.2 30.4 31% 29.81 0.0
07 18:15 W 21 G 29 5.00 Partly Cloudy with Haze and Breezy SCT110 61.5 31.1 32% 29.81 0.0
07 17:55 W 17 G 28 7.00 Partly Cloudy SCT065 SCT110 61.5 30.9 32% 29.82 0.0
07 17:35 W 16 G 26 7.00 Mostly Cloudy SCT065 BKN080 BKN110 61.5 32.2 33% 29.82 0.0
07 17:15 Calm 10.00 Overcast BKN065 OVC080 59.7 34.5 39% 29.83 0.0
07 16:55 N 13 G 16 10.00 Overcast BKN065 OVC085 57.2 34.2 42% 29.82 0.0
07 16:35 NE 13 G 17 10.00 Overcast SCT065 BKN075 OVC085 61.3 32.7 34% 29.82 0.0
07 16:15 W 20 G 26 7.00 Overcast SCT075 OVC085 60.4 32.2 35% 29.82 0.0
07 15:55 W 21 G 30 5.00 Overcast with Haze and Breezy SCT065 OVC085 61.9 31.5 32% 29.82 0.0
07 15:35 W 18 G 29 7.00 Overcast SCT065 BKN085 OVC110 60.4 28.9 30% 29.82 0.0
07 15:15 W 17 G 32 4.00 Mostly Cloudy with Haze SCT055 BKN075 BKN090 62.1 31.5 32% 29.83 0.0
07 14:55 W 22 G 31 5.00 Mostly Cloudy with Haze and Breezy BKN055 BKN065 61.2 32.7 34% 29.84 0.0
07 14:35 W 22 G 32 5.00 Partly Cloudy with Haze and Breezy SCT050 SCT100 61 32.7 35% 29.84 0.0
07 14:15 W 23 G 32 5.00 Partly Cloudy with Haze and Breezy SCT048 SCT050 SCT110 59.9 34.7 39% 29.86 0.0
07 13:55 W 18 G 32 5.00 Partly Cloudy with Haze SCT048 60.1 35.4 40% 29.86 0.0
07 13:35 SW 23 G 35 5.00 Partly Cloudy with Haze and Breezy SCT048 59.4 35.1 40% 29.87 0.0
07 13:15 W 22 G 31 5.00 Partly Cloudy with Haze and Breezy SCT048 SCT055 59.7 33.4 37% 29.88 0.0
07 12:55 SW 20 G 25 5.00 Partly Cloudy with Haze SCT048 58.5 32.9 59.4 34.3 38% 29.89 0.0
07 12:35 SW 22 G 29 7.00 Partly Cloudy and Breezy SCT050 58.8 32.4 37% 29.9 0.0
07 12:15 SW 22 G 29 5.00 Partly Cloudy with Haze and Breezy SCT055 58.5 31.5 36% 29.91 0.0
07 11:55 SW 24 G 32 5.00 Mostly Cloudy with Haze and Breezy BKN065 BKN075 58.8 29.1 32% 29.91 0.0
07 11:35 SW 22 G 30 7.00 Partly Cloudy and Breezy SCT065 SCT075 SCT090 58.6 27 30% 29.91 0.0
07 11:15 SW 18 7.00 Mostly Cloudy BKN075 56.7 26.4 31% 29.92 0.0
07 10:55 SW 16 G 24 10.00 Partly Cloudy SCT090 SCT110 56.3 24.8 30% 29.93 0.0
07 10:35 S 12 G 17 10.00 Partly Cloudy SCT110 56.1 25.9 31% 29.94 0.0
07 10:15 S 10 10.00 Mostly Cloudy BKN110 54 25 33% 29.94 0.0
07 09:55 S 8 10.00 Fair CLR 53.1 24.8 33% 29.95 0.0
07 09:35 S 6 7.00 Partly Cloudy SCT080 52.3 25.3 35% 29.97 0.0
07 09:15 S 8 10.00 Mostly Cloudy SCT080 BKN090 49.6 25.5 39% 47 29.98 0.0
07 08:55 S 6 7.00 Mostly Cloudy BKN090 49.1 25.3 40% 47 29.99 0.0
07 08:35 S 7 10.00 Partly Cloudy SCT085 SCT120 47.3 25.3 42% 44 29.99 0.0
07 08:15 S 5 7.00 Mostly Cloudy SCT085 BKN110 44.2 26.6 50% 42 29.99 0.0
07 07:55 S 5 10.00 Overcast OVC085 42.1 27.3 56% 40 30 0.0
07 07:35 SE 3 7.00 Overcast OVC085 40.3 27.3 60% 29.99 0.0
07 07:15 Calm 10.00 Mostly Cloudy BKN085 38.3 26.6 63% 30 0.0
07 06:55 Calm 10.00 Partly Cloudy SCT085 33.6 25 33.6 27.9 71% 29.99 0.0
07 06:35 Calm 7.00 Fair CLR 31.5 23.7 73% 29.99 0.0
07 06:15 Calm 10.00 Fair CLR 30.4 23.4 75% 29.98 0.0
07 05:55 Calm 10.00 Fair CLR 28.4 22.6 79% 29.98 0.0
07 05:35 Calm 10.00 Fair CLR 28 22.6 80% 29.98 0.0
07 05:15 Calm 10.00 Fair CLR 29.1 23 78% 29.98 0.0
07 04:55 Calm 10.00 Fair CLR 28.2 22.1 78% 29.99 0.0
07 04:35 S 3 10.00 Fair CLR 29.7 23.2 77% 29.99 0.0
07 04:15 S 3 10.00 Fair CLR 28.6 21.9 76% 29.99 0.0
07 03:55 S 5 10.00 Fair CLR 29.1 22.3 76% 25 29.99 0.0
07 03:35 S 3 10.00 Fair CLR 28.9 22.5 77% 30 0.0
07 03:15 S 5 10.00 Fair CLR 28.8 21.6 74% 24 30 0.0
07 02:55 Calm 10.00 Fair CLR 29.7 21.6 72% 30 0.0
07 02:15 Calm 10.00 Fair CLR 30.4 21.7 70% 30 0.0
07 01:55 Calm 10.00 Fair CLR 31.5 22.5 69% 30.01 0.0
07 01:35 S 3 10.00 Fair CLR 30.2 21 69% 30.01 0.0
07 01:15 Calm 10.00 Fair CLR 32.5 21.7 64% 30.02 0.0
07 00:55 Calm 10.00 Fair CLR 32.4 22.8 49.6 31.8 68% 30.02 0.0
07 00:35 W 3 10.00 Fair CLR 32.2 22.1 66% 30.02 0.0
07 00:15 Calm 10.00 Fair CLR 34 22.3 62% 30.02 0.0
06 23:55 Calm 10.00 Fair CLR 34.3 22.3 61% 30.02 0.0
06 23:35 Calm 10.00 Fair CLR 34.3 23 63% 30.02 0.0
06 23:15 Calm 10.00 Fair CLR 36.7 24.1 60% 30.01 0.0
06 22:55 Calm 10.00 Fair CLR 39.2 24.6 56% 30.02 0.0
06 22:35 Calm 10.00 Fair CLR 39.2 24.6 56% 30.02 0.0
06 22:15 Calm 10.00 Fair CLR 40.5 24.1 52% 30.02 0.0
06 21:55 Calm 10.00 Fair CLR 41.4 24.3 51% 30.01 0.0
06 21:35 NW 3 10.00 Fair CLR 43 23.4 46% 30.01 0.0
06 21:15 NW 3 10.00 Fair CLR 43.9 22.8 43% 30 0.0
06 20:55 NW 3 10.00 Fair CLR 44.6 22.6 42% 30 0.0
06 20:35 NW 6 10.00 Fair CLR 45.3 22.1 40% 43 29.99 0.0
06 20:15 NW 7 10.00 Fair CLR 46.6 21.7 37% 44 29.99 0.0
06 19:55 NW 12 G 17 7.00 Fair CLR 47.7 21.4 35% 43 29.99 0.0
06 19:35 NW 14 G 20 7.00 Partly Cloudy SCT065 48.7 21.2 34% 44 29.99 0.0
06 19:15 NW 8 7.00 Partly Cloudy SCT065 49.5 22.1 34% 47 29.98 0.0
06 18:55 NW 12 G 17 7.00 Partly Cloudy SCT065 49.5 22.5 55.6 49.5 35% 45 29.99 0.0
06 18:35 NW 13 G 20 7.00 Partly Cloudy SCT065 50.5 22.1 33% 29.98 0.0
06 18:15 NW 15 G 23 7.00 Mostly Cloudy BKN065 51.3 22.5 32% 29.98 0.0
06 17:55 NW 16 G 23 10.00 Mostly Cloudy BKN065 52 23.2 32% 29.98 0.0
06 17:35 NW 14 G 25 7.00 Overcast OVC065 51.8 22.8 32% 29.98 0.0
06 17:15 NW 18 G 29 7.00 Overcast OVC065 51.8 22.6 32% 29.98 0.0
06 16:55 W 18 G 25 7.00 Overcast OVC065 51.6 22.8 32% 29.96 0.0
06 16:35 W 15 G 22 7.00 Overcast OVC065 52.9 23.5 32% 29.96 0.0
06 16:15 NW 20 7.00 Overcast OVC065 52.7 24.3 33% 29.96 0.0
06 15:55 NW 20 G 26 5.00 Overcast with Haze OVC065 53.1 24.4 33% 29.96 0.0
06 15:35 NW 14 G 22 7.00 Mostly Cloudy BKN065 52.7 23 31% 29.97 0.0
06 15:15 NW 18 G 24 5.00 Mostly Cloudy with Haze BKN065 55.6 26.8 33% 29.97 0.0
06 14:55 W 17 G 25 5.00 Partly Cloudy with Haze SCT065 54.5 25.2 32% 29.97 0.0
06 14:35 W 16 G 29 7.00 Partly Cloudy SCT065 53.8 26.1 34% 29.97 0.0
06 14:15 W 20 G 25 7.00 Mostly Cloudy BKN065 55.4 26.4 33% 29.97 0.0
06 13:55 NW 16 G 30 5.00 Overcast with Haze OVC065 53.8 25.5 34% 29.97 0.0
06 13:35 W 20 G 25 5.00 Partly Cloudy with Haze SCT065 53.2 25.5 34% 29.96 0.0
06 13:15 W 15 G 23 5.00 Fair with Haze CLR 53.8 23.2 30% 29.96 0.0
06 12:55 NW 18 G 33 4.00 Fair with Haze CLR 53.8 23 54.5 37.2 30% 29.97 0.0
06 12:35 W 18 G 24 5.00 Fair with Haze CLR 54 24.4 32% 29.97 0.0
06 12:15 W 23 G 29 4.00 Partly Cloudy with Haze and Breezy SCT070 52.9 23.2 31% 29.97 0.0
06 11:55 W 17 G 25 5.00 Mostly Cloudy with Haze BKN060 52.9 25.5 35% 29.97 0.0
06 11:35 W 17 G 26 7.00 Mostly Cloudy BKN060 BKN070 52.5 24.4 34% 29.97 0.0
06 11:15 W 13 7.00 Mostly Cloudy BKN060 54 27.1 36% 29.97 0.0
06 10:55 W 15 G 20 7.00 Partly Cloudy SCT060 SCT070 52.9 26.8 36% 29.97 0.0
06 10:15 W 12 7.00 Fair CLR 51.6 28.2 41% 29.97 0.0
Date Time (cdt) Wind (mph) Vis. (mi.) Weather Sky Cond. Air Dwpt Max. Min. Relative Humidity Wind Chill (°F) Heat Index (°F) altimeter (in) sea level (mb) 1 hr 3 hr 6 hr
6 hour
Temperature (ºF) Pressure Precipitation (in)